Time;durP1;ratioP1;P1;durP2;ratioP2;P2;SDS_P1;SDS_P2;PMS_P1;PMS_P2;Temp;Humidity;BMP_temperature;BMP_pressure;BME280_temperature;BME280_humidity;BME280_pressure;Samples;Min_cycle;Max_cycle;Signal;HPM_P1;HPM_P2
2022/10/12 00:02:23;;;;;;;;;;;;;;;20.79;31.82;98605.59;4867811;29;865;-82
2022/10/12 00:04:49;;;;;;;;;;;;;;;20.71;31.71;98599.22;4883131;29;855;-82
2022/10/12 00:07:14;;;;;;;;;;;;;;;21.06;31.54;98602.78;4883075;29;843;-82
2022/10/12 00:09:40;;;;;;;;;;;;;;;21.28;31.29;98592.72;4882795;29;895;-83
2022/10/12 00:12:05;;;;;;;;;;;;;;;21.26;31.00;98600.06;4882801;29;745;-82
2022/10/12 00:14:34;;;;;;;;;;;;;;;21.11;31.42;98599.47;4882873;29;1173;-82
2022/10/12 00:16:59;;;;;;;;;;;;;;;20.86;31.97;98599.81;4882988;29;863;-82
2022/10/12 00:19:24;;;;;;;;;;;;;;;20.89;31.57;98601.03;4867108;29;1908;-82
2022/10/12 00:21:50;;;;;;;;;;;;;;;20.76;31.66;98589.47;4901733;29;1130;-82
2022/10/12 00:24:15;;;;;;;;;;;;;;;20.88;32.16;98585.25;4940464;29;1169;-82
2022/10/12 00:26:41;;;;;;;;;;;;;;;21.20;31.17;98588.41;4939307;29;938;-82
2022/10/12 00:29:06;;;;;;;;;;;;;;;21.27;31.13;98585.47;4956024;29;1126;-82
2022/10/12 00:31:32;;;;;;;;;;;;;;;20.91;31.75;98588.03;4938877;29;879;-82
2022/10/12 00:34:00;;;;;;;;;;;;;;;20.95;31.29;98588.78;4939097;29;1237;-82
2022/10/12 00:36:27;;;;;;;;;;;;;;;20.97;31.26;98594.81;4939040;29;763;-82
2022/10/12 00:38:53;;;;;;;;;;;;;;;20.98;31.44;98585.09;4923239;29;1966;-82
2022/10/12 00:41:19;;;;;;;;;;;;;;;20.87;31.52;98583.66;4923067;29;1368;-83
2022/10/12 00:43:45;;;;;;;;;;;;;;;20.71;31.67;98581.47;4938896;29;786;-82
2022/10/12 00:46:12;;;;;;;;;;;;;;;20.74;31.97;98575.75;4922939;29;879;-82
2022/10/12 00:48:38;;;;;;;;;;;;;;;20.94;31.18;98577.91;4938703;29;879;-82
2022/10/12 00:51:03;;;;;;;;;;;;;;;21.13;31.58;98585.69;4938761;29;811;-82
2022/10/12 00:53:31;;;;;;;;;;;;;;;21.28;31.37;98578.56;4938926;29;835;-82
2022/10/12 00:56:00;;;;;;;;;;;;;;;20.97;31.63;98577.03;4938684;29;954;-82
2022/10/12 01:02:00;;;;;;;;;;;;;;;20.75;31.87;98577.34;4939128;29;814;-82
2022/10/12 01:04:25;;;;;;;;;;;;;;;20.80;31.61;98581.75;4940081;29;1418;-82
2022/10/12 01:06:51;;;;;;;;;;;;;;;20.86;32.11;98576.41;4940113;29;1149;-82
2022/10/12 01:09:16;;;;;;;;;;;;;;;21.07;31.51;98568.38;4939664;29;1150;-82
2022/10/12 01:11:41;;;;;;;;;;;;;;;21.25;31.13;98576.63;4939504;29;823;-82
2022/10/12 01:14:07;;;;;;;;;;;;;;;21.07;31.38;98570.41;4939427;29;728;-82
2022/10/12 01:16:35;;;;;;;;;;;;;;;20.90;31.54;98580.00;4958826;29;1219;-82
2022/10/12 01:19:07;;;;;;;;;;;;;;;20.87;31.85;98583.66;4942415;29;1975;-82
2022/10/12 01:21:33;;;;;;;;;;;;;;;20.61;32.08;98582.41;4959658;29;744;-82
2022/10/12 01:24:05;;;;;;;;;;;;;;;20.73;31.98;98582.66;4942606;29;787;-82
2022/10/12 01:26:40;;;;;;;;;;;;;;;20.58;31.80;98572.75;4959874;29;747;-82
2022/10/12 01:29:13;;;;;;;;;;;;;;;20.69;31.79;98573.41;4926433;29;843;-82
2022/10/12 01:31:57;;;;;;;;;;;;;;;20.70;31.92;98572.16;4942386;29;772;-82
2022/10/12 01:34:29;;;;;;;;;;;;;;;20.97;31.88;98582.69;4958369;29;1208;-82
2022/10/12 01:37:07;;;;;;;;;;;;;;;21.18;31.49;98576.72;4919118;29;853;-82
2022/10/12 01:39:53;;;;;;;;;;;;;;;21.12;31.49;98572.78;4918812;29;2006;-82
2022/10/12 01:42:29;;;;;;;;;;;;;;;20.91;31.44;98579.56;4865884;29;1355;-82
2022/10/12 01:45:04;;;;;;;;;;;;;;;20.46;32.67;98576.09;4859635;29;1134;-82
2022/10/12 01:47:30;;;;;;;;;;;;;;;20.59;31.87;98574.34;4823006;29;1348;-82
2022/10/12 01:49:56;;;;;;;;;;;;;;;20.64;32.21;98570.25;4822941;29;926;-82
2022/10/12 01:52:24;;;;;;;;;;;;;;;20.68;32.04;98576.66;4807997;29;953;-82
2022/10/12 01:54:52;;;;;;;;;;;;;;;21.20;31.82;98579.94;4823113;29;1112;-82
2022/10/12 01:57:18;;;;;;;;;;;;;;;21.18;31.66;98581.56;4807959;29;1139;-82
2022/10/12 01:59:59;;;;;;;;;;;;;;;21.20;31.28;98579.94;4822301;29;2006;-82
2022/10/12 02:02:53;;;;;;;;;;;;;;;20.90;31.95;98588.47;4823044;29;1152;-81
2022/10/12 02:05:39;;;;;;;;;;;;;;;20.99;31.73;98588.75;4804712;29;1148;-82
2022/10/12 02:08:23;;;;;;;;;;;;;;;21.00;31.75;98593.19;4774921;30;1077;-82
2022/10/12 02:11:11;;;;;;;;;;;;;;;20.88;32.01;98585.25;4789580;30;1034;-82
2022/10/12 02:13:40;;;;;;;;;;;;;;;20.67;32.33;98575.84;4771523;30;884;-82
2022/10/12 02:16:07;;;;;;;;;;;;;;;21.09;31.60;98587.78;4771714;30;1371;-82
2022/10/12 02:18:32;;;;;;;;;;;;;;;20.99;32.66;98591.59;4768654;29;1984;-82
2022/10/12 02:20:57;;;;;;;;;;;;;;;21.17;32.37;98586.44;4823010;29;759;-82
2022/10/12 02:23:23;;;;;;;;;;;;;;;21.22;32.22;98585.94;4807459;29;939;-82
2022/10/12 02:25:49;;;;;;;;;;;;;;;20.81;32.66;98586.97;4822825;29;944;-84
2022/10/12 02:28:16;;;;;;;;;;;;;;;20.92;32.53;98594.50;4822741;29;919;-82
2022/10/12 02:30:47;;;;;;;;;;;;;;;20.87;32.65;98587.28;4822814;29;1255;-82
2022/10/12 02:33:13;;;;;;;;;;;;;;;20.79;32.43;98586.59;4807801;29;1107;-82
2022/10/12 02:35:49;;;;;;;;;;;;;;;20.78;32.47;98593.50;4822598;29;1048;-81
2022/10/12 02:38:17;;;;;;;;;;;;;;;20.54;33.18;98588.97;4822993;29;1919;-82
2022/10/12 02:41:02;;;;;;;;;;;;;;;21.11;32.80;98604.34;4829646;29;1057;-82
2022/10/12 02:43:35;;;;;;;;;;;;;;;21.33;32.16;98611.28;4880785;29;932;-82
2022/10/12 02:46:01;;;;;;;;;;;;;;;21.32;31.87;98602.00;4846978;29;815;-82
2022/10/12 02:48:26;;;;;;;;;;;;;;;21.10;32.26;98609.19;4862089;29;809;-82
2022/10/12 02:50:53;;;;;;;;;;;;;;;20.81;32.80;98606.75;4881256;29;1228;-82
2022/10/12 02:53:19;;;;;;;;;;;;;;;20.85;32.82;98606.72;4918161;29;740;-82
2022/10/12 02:55:51;;;;;;;;;;;;;;;20.77;32.59;98597.50;4934544;29;1229;-82
2022/10/12 02:58:16;;;;;;;;;;;;;;;20.81;32.46;98609.59;4934094;29;1911;-81
2022/10/12 03:00:42;;;;;;;;;;;;;;;20.80;32.52;98608.00;4902435;29;1091;-82
2022/10/12 03:03:07;;;;;;;;;;;;;;;20.91;32.30;98607.03;4934163;29;998;-82
2022/10/12 03:05:33;;;;;;;;;;;;;;;20.99;32.17;98608.56;4918218;29;1165;-82
2022/10/12 03:07:58;;;;;;;;;;;;;;;20.87;32.49;98603.47;4902484;29;1085;-82
2022/10/12 03:10:24;;;;;;;;;;;;;;;21.00;32.17;98605.28;4915208;29;1354;-82
2022/10/12 03:12:49;;;;;;;;;;;;;;;20.93;31.99;98598.91;4902420;29;835;-82
2022/10/12 03:15:14;;;;;;;;;;;;;;;21.19;32.52;98606.63;4902520;29;1180;-81
2022/10/12 03:17:40;;;;;;;;;;;;;;;21.33;32.38;98600.75;4905631;29;1984;-82
2022/10/12 03:20:05;;;;;;;;;;;;;;;21.32;32.58;98599.16;4905570;29;915;-81
2022/10/12 03:22:31;;;;;;;;;;;;;;;21.02;32.70;98604.84;4905868;29;1094;-82
2022/10/12 03:24:59;;;;;;;;;;;;;;;21.02;32.50;98602.03;4921336;29;929;-82
2022/10/12 03:27:24;;;;;;;;;;;;;;;20.95;32.46;98599.31;4890266;29;1149;-82
2022/10/12 03:29:50;;;;;;;;;;;;;;;20.59;32.93;98596.97;4904983;29;1023;-82
2022/10/12 03:32:15;;;;;;;;;;;;;;;20.80;32.52;98596.69;4924014;29;838;-82
2022/10/12 03:34:41;;;;;;;;;;;;;;;20.59;33.14;98591.31;4924346;29;1259;-82
2022/10/12 03:37:06;;;;;;;;;;;;;;;20.63;33.01;98586.41;4939935;29;782;-82
2022/10/12 03:39:32;;;;;;;;;;;;;;;20.76;32.77;98587.44;4939824;29;1910;-82
2022/10/12 03:41:57;;;;;;;;;;;;;;;20.93;32.46;98590.44;4935527;29;796;-82
2022/10/12 03:44:23;;;;;;;;;;;;;;;21.03;32.19;98592.31;4941522;29;1264;-82
2022/10/12 03:46:48;;;;;;;;;;;;;;;21.06;32.13;98597.13;4957289;29;1136;-82
2022/10/12 03:49:14;;;;;;;;;;;;;;;20.78;32.72;98593.50;4923823;29;935;-82
2022/10/12 03:51:39;;;;;;;;;;;;;;;20.88;32.49;98607.88;4924339;29;925;-82
2022/10/12 03:54:05;;;;;;;;;;;;;;;21.14;32.88;98609.94;4924191;29;1126;-82
2022/10/12 03:56:30;;;;;;;;;;;;;;;21.22;33.07;98616.28;4940105;29;807;-82
2022/10/12 03:58:55;;;;;;;;;;;;;;;21.40;32.89;98610.34;4923825;29;1915;-82
2022/10/12 04:01:21;;;;;;;;;;;;;;;21.46;32.84;98614.34;4940018;29;724;-81
2022/10/12 04:03:46;;;;;;;;;;;;;;;21.39;32.52;98605.94;4923926;29;974;-82
2022/10/12 04:06:12;;;;;;;;;;;;;;;21.26;32.82;98606.50;4939445;29;890;-81
2022/10/12 04:08:37;;;;;;;;;;;;;;;21.10;32.72;98609.19;4923691;29;774;-82
2022/10/12 04:11:03;;;;;;;;;;;;;;;20.76;33.45;98607.22;4923770;29;1248;-82
2022/10/12 04:13:28;;;;;;;;;;;;;;;20.92;32.92;98608.63;4923743;29;732;-82
2022/10/12 04:15:54;;;;;;;;;;;;;;;20.87;32.90;98603.47;4939496;29;1187;-82
2022/10/12 04:21:54;;;;;;;;;;;;;;;20.90;32.67;98599.78;4941693;29;652;-81
2022/10/12 04:24:19;;;;;;;;;;;;;;;21.06;32.36;98605.59;4939747;29;736;-82
2022/10/12 04:26:45;;;;;;;;;;;;;;;21.08;32.40;98603.13;4956838;29;1237;-82
2022/10/12 04:29:11;;;;;;;;;;;;;;;21.00;32.42;98604.50;4941344;29;692;-82
2022/10/12 04:31:37;;;;;;;;;;;;;;;20.71;32.97;98601.25;4941027;29;696;-81
2022/10/12 04:34:02;;;;;;;;;;;;;;;20.69;32.93;98598.06;4924149;29;1162;-82
2022/10/12 04:36:28;;;;;;;;;;;;;;;20.70;32.76;98599.66;4939865;29;826;-81
2022/10/12 04:38:53;;;;;;;;;;;;;;;20.96;32.41;98609.41;4955807;29;1911;-81
2022/10/12 04:41:19;;;;;;;;;;;;;;;20.87;32.68;98607.09;4940570;29;1246;-82
2022/10/12 04:43:44;;;;;;;;;;;;;;;20.94;32.62;98606.19;4941204;29;763;-82
2022/10/12 04:46:10;;;;;;;;;;;;;;;20.76;32.82;98606.44;4940606;29;788;-82
2022/10/12 04:48:36;;;;;;;;;;;;;;;21.12;32.53;98612.38;4955847;29;791;-81
2022/10/12 04:51:02;;;;;;;;;;;;;;;21.05;33.77;98618.16;4939989;29;1098;-81
2022/10/12 04:53:27;;;;;;;;;;;;;;;21.27;33.27;98613.78;4939906;29;1209;-81
2022/10/12 04:55:53;;;;;;;;;;;;;;;21.20;32.95;98619.56;4955533;29;837;-82
2022/10/12 04:58:18;;;;;;;;;;;;;;;20.85;33.38;98622.88;4955938;29;1914;-82
2022/10/12 05:00:44;;;;;;;;;;;;;;;20.87;33.04;98626.09;4939396;29;839;-81
2022/10/12 05:03:09;;;;;;;;;;;;;;;21.00;32.84;98627.13;4939585;29;764;-82
2022/10/12 05:09:09;;;;;;;;;;;;;;;20.68;33.44;98628.38;4957641;29;841;-82
2022/10/12 05:11:34;;;;;;;;;;;;;;;21.07;32.62;98627.00;4942027;29;1034;-81
2022/10/12 05:14:00;;;;;;;;;;;;;;;20.98;32.90;98636.00;4941588;29;1265;-81
2022/10/12 05:16:25;;;;;;;;;;;;;;;20.84;32.94;98629.78;4941426;29;1208;-82
2022/10/12 05:18:50;;;;;;;;;;;;;;;20.73;33.04;98636.38;4941467;29;1971;-82
2022/10/12 05:21:16;;;;;;;;;;;;;;;20.65;33.15;98636.88;4941623;29;1155;-81
2022/10/12 05:23:41;;;;;;;;;;;;;;;20.94;32.69;98634.50;4941327;29;776;-81
2022/10/12 05:26:07;;;;;;;;;;;;;;;20.77;33.08;98634.28;4922378;29;861;-82
2022/10/12 05:28:32;;;;;;;;;;;;;;;20.79;33.12;98639.53;4937976;29;831;-82
2022/10/12 05:30:58;;;;;;;;;;;;;;;20.99;33.56;98639.66;4922345;29;1229;-82
2022/10/12 05:33:23;;;;;;;;;;;;;;;21.26;33.44;98648.16;4938269;29;784;-82
2022/10/12 05:35:49;;;;;;;;;;;;;;;21.28;33.18;98646.50;4936793;29;804;-82
2022/10/12 05:38:14;;;;;;;;;;;;;;;21.15;33.05;98656.81;4937850;29;1906;-82
2022/10/12 05:40:40;;;;;;;;;;;;;;;20.79;33.81;98665.00;4937956;29;858;-82
2022/10/12 05:43:05;;;;;;;;;;;;;;;20.88;33.49;98664.44;4937918;29;874;-82
2022/10/12 05:45:31;;;;;;;;;;;;;;;20.93;33.08;98666.81;4938363;29;928;-82
2022/10/12 05:47:56;;;;;;;;;;;;;;;20.87;33.16;98663.66;4937832;29;791;-82
2022/10/12 05:50:22;;;;;;;;;;;;;;;20.85;33.35;98676.63;4938002;29;799;-82
2022/10/12 05:52:47;;;;;;;;;;;;;;;20.72;33.65;98679.19;4937622;29;881;-82
2022/10/12 05:55:13;;;;;;;;;;;;;;;20.70;33.26;98676.81;4921975;29;1274;-82
2022/10/12 05:57:38;;;;;;;;;;;;;;;20.88;32.96;98681.44;4933352;29;1914;-82
2022/10/12 06:00:07;;;;;;;;;;;;;;;20.98;32.88;98674.81;4922049;29;1330;-82
2022/10/12 06:02:35;;;;;;;;;;;;;;;21.19;33.81;98682.22;4937675;29;978;-82
2022/10/12 06:05:00;;;;;;;;;;;;;;;21.28;33.29;98677.63;4921812;29;1349;-82
2022/10/12 06:07:26;;;;;;;;;;;;;;;21.19;33.33;98680.22;4938217;29;1250;-82
2022/10/12 06:09:51;;;;;;;;;;;;;;;21.13;33.17;98687.56;4937593;29;814;-82
2022/10/12 06:12:17;;;;;;;;;;;;;;;21.08;33.15;98691.66;4938186;29;866;-82
2022/10/12 06:14:42;;;;;;;;;;;;;;;21.08;32.77;98690.84;4921720;29;1226;-81
2022/10/12 06:17:08;;;;;;;;;;;;;;;21.08;32.82;98690.84;4921821;29;1110;-82
2022/10/12 06:19:34;;;;;;;;;;;;;;;20.80;33.40;98704.16;4937392;29;1982;-81
2022/10/12 06:21:59;;;;;;;;;;;;;;;20.69;33.51;98703.47;4922053;29;1120;-82
2022/10/12 06:24:25;;;;;;;;;;;;;;;20.79;33.20;98702.56;4921422;29;744;-82
2022/10/12 06:26:50;;;;;;;;;;;;;;;20.79;33.16;98705.38;4921751;29;1134;-82
2022/10/12 06:29:16;;;;;;;;;;;;;;;20.81;33.19;98710.59;4937555;29;751;-82
2022/10/12 06:31:41;;;;;;;;;;;;;;;20.89;32.98;98705.69;4950151;29;1102;-81
2022/10/12 06:34:07;;;;;;;;;;;;;;;20.70;33.43;98707.91;4938704;29;1223;-82
2022/10/12 06:36:32;;;;;;;;;;;;;;;20.85;33.14;98707.75;4938652;29;1238;-82
2022/10/12 06:38:58;;;;;;;;;;;;;;;20.94;33.13;98705.22;4954552;29;1964;-82
2022/10/12 06:41:23;;;;;;;;;;;;;;;21.06;33.97;98702.59;4938477;29;826;-82
2022/10/12 06:43:49;;;;;;;;;;;;;;;21.33;33.32;98696.19;4922396;29;1330;-82
2022/10/12 06:46:14;;;;;;;;;;;;;;;21.21;33.30;98706.06;4939654;29;1216;-81
2022/10/12 06:48:40;;;;;;;;;;;;;;;20.99;33.44;98699.88;4944189;29;938;-82
2022/10/12 06:51:05;;;;;;;;;;;;;;;21.14;33.01;98706.16;4960033;29;798;-82
2022/10/12 06:53:31;;;;;;;;;;;;;;;20.95;33.32;98699.13;4944048;29;760;-82
2022/10/12 06:55:57;;;;;;;;;;;;;;;20.95;33.09;98703.97;4918041;29;1121;-81
2022/10/12 06:58:23;;;;;;;;;;;;;;;21.07;33.02;98700.56;4921503;29;1984;-82
2022/10/12 07:00:48;;;;;;;;;;;;;;;20.98;33.04;98703.13;4890545;29;1293;-81
2022/10/12 07:03:14;;;;;;;;;;;;;;;20.72;33.29;98711.09;4890729;29;1310;-82
2022/10/12 07:05:39;;;;;;;;;;;;;;;20.85;33.24;98707.75;4890610;29;824;-82
2022/10/12 07:08:05;;;;;;;;;;;;;;;20.91;33.18;98709.69;4884401;29;1239;-82
2022/10/12 07:10:30;;;;;;;;;;;;;;;20.91;33.03;98709.69;4883910;29;845;-82
2022/10/12 07:12:55;;;;;;;;;;;;;;;20.94;32.66;98720.16;4883905;29;958;-82
2022/10/12 07:15:21;;;;;;;;;;;;;;;20.90;32.84;98719.41;4889047;29;1180;-82
2022/10/12 07:17:46;;;;;;;;;;;;;;;20.88;32.72;98712.53;4883706;29;1907;-82
2022/10/12 07:20:12;;;;;;;;;;;;;;;20.65;33.16;98708.38;4884331;29;1263;-82
2022/10/12 07:22:37;;;;;;;;;;;;;;;20.89;32.98;98719.81;4884065;29;1234;-82
2022/10/12 07:25:03;;;;;;;;;;;;;;;21.32;33.06;98723.72;4883726;29;709;-81
2022/10/12 07:27:28;;;;;;;;;;;;;;;21.26;33.57;98719.72;4883700;29;811;-81
2022/10/12 07:29:54;;;;;;;;;;;;;;;21.20;33.51;98724.25;4883389;29;930;-82
2022/10/12 07:32:19;;;;;;;;;;;;;;;21.13;33.19;98732.84;4884124;29;859;-82
2022/10/12 07:34:45;;;;;;;;;;;;;;;21.04;33.13;98726.91;4883502;29;833;-81
2022/10/12 07:37:10;;;;;;;;;;;;;;;20.98;33.28;98722.91;4883842;29;777;-82
2022/10/12 07:39:36;;;;;;;;;;;;;;;21.01;32.99;98725.72;4887192;29;1903;-82
2022/10/12 07:42:02;;;;;;;;;;;;;;;21.04;32.91;98730.53;4903408;29;1133;-82
2022/10/12 07:44:29;;;;;;;;;;;;;;;20.92;33.29;98733.09;4872330;29;1238;-82
2022/10/12 07:46:54;;;;;;;;;;;;;;;20.83;33.31;98725.16;4903434;29;1139;-82
2022/10/12 07:49:20;;;;;;;;;;;;;;;20.79;33.63;98736.50;4887725;29;812;-82
2022/10/12 07:51:46;;;;;;;;;;;;;;;20.71;33.39;98723.66;4887747;29;1123;-82
2022/10/12 07:54:20;;;;;;;;;;;;;;;20.83;33.20;98730.81;4904252;29;831;-81
2022/10/12 07:56:46;;;;;;;;;;;;;;;20.70;33.39;98722.06;4904374;29;748;-81
2022/10/12 07:59:11;;;;;;;;;;;;;;;21.03;34.10;98728.09;4902050;29;1914;-82
2022/10/12 08:01:36;;;;;;;;;;;;;;;21.14;34.22;98736.47;4887311;29;1134;-82
2022/10/12 08:04:02;;;;;;;;;;;;;;;21.14;33.87;98731.63;4903416;29;788;-82
2022/10/12 08:06:31;;;;;;;;;;;;;;;21.17;33.40;98721.47;4902760;29;792;-82
2022/10/12 08:08:56;;;;;;;;;;;;;;;20.94;33.61;98725.03;4886904;29;1106;-82
2022/10/12 08:11:22;;;;;;;;;;;;;;;20.93;33.28;98723.38;4902430;29;882;-82
2022/10/12 08:13:47;;;;;;;;;;;;;;;20.99;33.49;98733.03;4902593;29;744;-82
2022/10/12 08:16:14;;;;;;;;;;;;;;;20.85;33.47;98733.19;4898039;29;1214;-82
2022/10/12 08:18:39;;;;;;;;;;;;;;;20.90;33.11;98729.91;4901447;29;1915;-82
2022/10/12 08:21:05;;;;;;;;;;;;;;;21.00;32.83;98728.97;4901557;29;811;-82
2022/10/12 08:23:31;;;;;;;;;;;;;;;20.69;33.24;98731.75;4882836;29;1214;-82
2022/10/12 08:25:56;;;;;;;;;;;;;;;20.80;33.10;98723.16;4867560;29;1138;-82
2022/10/12 08:28:22;;;;;;;;;;;;;;;20.89;32.70;98733.97;4882605;29;1119;-82
2022/10/12 08:30:47;;;;;;;;;;;;;;;20.84;32.75;98720.28;4882560;29;1361;-81
2022/10/12 08:33:13;;;;;;;;;;;;;;;20.88;32.61;98723.84;4845360;29;852;-82
2022/10/12 08:35:39;;;;;;;;;;;;;;;21.07;33.36;98714.72;4830362;29;1230;-82
2022/10/12 08:38:05;;;;;;;;;;;;;;;21.18;33.60;98717.41;4845275;29;1986;-81
2022/10/12 08:40:31;;;;;;;;;;;;;;;21.30;33.41;98720.53;4830391;29;1263;-81
2022/10/12 08:43:03;;;;;;;;;;;;;;;21.07;33.33;98712.69;4829952;29;1163;-81
2022/10/12 08:45:36;;;;;;;;;;;;;;;20.91;33.58;98714.53;4829754;29;780;-82
2022/10/12 08:48:20;;;;;;;;;;;;;;;20.89;33.32;98712.13;4814617;29;867;-82
2022/10/12 08:50:50;;;;;;;;;;;;;;;20.86;33.51;98710.16;4827232;29;980;-82
2022/10/12 08:53:22;;;;;;;;;;;;;;;21.03;32.98;98705.47;4808405;29;902;-82
2022/10/12 08:55:47;;;;;;;;;;;;;;;20.99;33.10;98721.72;4826809;29;881;-82
2022/10/12 08:58:39;;;;;;;;;;;;;;;21.04;32.77;98719.22;4811744;29;1981;-82
2022/10/12 09:01:10;;;;;;;;;;;;;;;20.85;32.94;98727.53;4808698;29;1227;-82
2022/10/12 09:03:42;;;;;;;;;;;;;;;20.96;32.85;98733.88;4812993;29;958;-82
2022/10/12 09:06:07;;;;;;;;;;;;;;;21.08;32.56;98721.97;4827097;29;1065;-82
2022/10/12 09:11:57;;;;;;;;;;;;;;;20.78;32.74;98740.56;4826709;29;855;-82
2022/10/12 09:14:26;;;;;;;;;;;;;;;20.72;33.10;98730.09;4826552;29;1222;-82
2022/10/12 09:16:51;;;;;;;;;;;;;;;21.08;32.69;98741.78;4826712;29;1258;-82
2022/10/12 09:19:18;;;;;;;;;;;;;;;21.09;33.65;98737.75;4826332;29;1907;-82
2022/10/12 09:21:44;;;;;;;;;;;;;;;21.37;33.14;98730.94;4796361;29;1135;-82
2022/10/12 09:24:12;;;;;;;;;;;;;;;21.33;33.02;98744.31;4849835;29;989;-82
2022/10/12 09:26:38;;;;;;;;;;;;;;;21.06;33.62;98727.28;4860018;29;796;-82
2022/10/12 09:29:21;;;;;;;;;;;;;;;20.96;33.35;98733.88;4844762;29;848;-82
2022/10/12 09:31:51;;;;;;;;;;;;;;;20.78;33.56;98729.25;4860105;29;951;-82
2022/10/12 09:34:16;;;;;;;;;;;;;;;21.00;32.97;98745.94;4859898;29;809;-82
2022/10/12 09:36:41;;;;;;;;;;;;;;;20.96;33.09;98739.53;4860206;29;1060;-82
2022/10/12 09:39:16;;;;;;;;;;;;;;;20.94;33.09;98736.34;4847521;29;2018;-82
2022/10/12 09:41:43;;;;;;;;;;;;;;;20.91;32.92;98737.16;4847675;29;1104;-82
2022/10/12 09:44:13;;;;;;;;;;;;;;;20.94;32.85;98739.16;4847375;29;962;-82
2022/10/12 09:46:39;;;;;;;;;;;;;;;20.98;32.60;98726.56;4847718;29;749;-82
2022/10/12 09:49:04;;;;;;;;;;;;;;;20.96;32.57;98728.22;4877441;29;860;-82
2022/10/12 09:51:29;;;;;;;;;;;;;;;20.89;32.58;98733.97;4904382;29;1254;-82
2022/10/12 09:53:57;;;;;;;;;;;;;;;20.75;33.15;98734.94;4903340;29;1113;-82
2022/10/12 09:56:28;;;;;;;;;;;;;;;21.00;32.60;98726.16;4903155;29;841;-82
2022/10/12 10:02:28;;;;;;;;;;;;;;;20.60;33.02;98714.50;4919072;29;826;-81
2022/10/12 10:04:54;;;;;;;;;;;;;;;20.80;32.71;98715.47;4887410;29;882;-82
2022/10/12 10:07:20;;;;;;;;;;;;;;;20.59;32.81;98710.06;4887547;29;1163;-82
2022/10/12 10:09:47;;;;;;;;;;;;;;;20.76;32.69;98714.69;4888012;29;1133;-82
2022/10/12 10:12:21;;;;;;;;;;;;;;;20.88;32.28;98715.38;4887511;29;1088;-82
2022/10/12 10:15:19;;;;;;;;;;;;;;;21.08;32.96;98716.31;4899128;29;1214;-82
2022/10/12 10:17:45;;;;;;;;;;;;;;;21.12;33.73;98719.91;4865258;29;1903;-83
2022/10/12 10:20:12;;;;;;;;;;;;;;;21.31;33.35;98716.47;4865664;29;1506;-83
2022/10/12 10:22:45;;;;;;;;;;;;;;;21.14;33.34;98709.00;4884159;29;817;-83
2022/10/12 10:25:17;;;;;;;;;;;;;;;20.94;33.54;98710.88;4825634;29;1116;-83
2022/10/12 10:27:42;;;;;;;;;;;;;;;20.98;33.34;98708.78;4834629;29;967;-83
2022/10/12 10:30:14;;;;;;;;;;;;;;;20.93;33.38;98700.75;4847882;29;1150;-83
2022/10/12 10:32:40;;;;;;;;;;;;;;;21.11;32.86;98703.38;4847683;29;736;-83
2022/10/12 10:35:11;;;;;;;;;;;;;;;20.99;32.91;98704.75;4847872;29;851;-83
2022/10/12 10:37:44;;;;;;;;;;;;;;;20.89;33.12;98697.19;4847606;29;729;-83
2022/10/12 10:40:35;;;;;;;;;;;;;;;20.80;33.34;98697.69;4847884;29;1151;-83
2022/10/12 10:43:05;;;;;;;;;;;;;;;20.86;33.30;98700.84;4829508;29;1095;-83
2022/10/12 10:45:31;;;;;;;;;;;;;;;21.01;32.77;98702.28;4821258;29;951;-83
2022/10/12 10:48:00;;;;;;;;;;;;;;;20.85;33.01;98696.44;4847378;29;1199;-83
2022/10/12 10:50:30;;;;;;;;;;;;;;;20.93;32.86;98700.75;4847653;29;851;-83
2022/10/12 10:53:05;;;;;;;;;;;;;;;20.95;32.55;98701.94;4847613;29;940;-83
2022/10/12 10:55:33;;;;;;;;;;;;;;;20.88;32.92;98704.06;4851627;29;848;-83
2022/10/12 10:57:58;;;;;;;;;;;;;;;20.94;32.86;98702.38;4850302;29;1915;-83
2022/10/12 11:00:24;;;;;;;;;;;;;;;21.13;33.38;98686.75;4850459;29;1306;-83
2022/10/12 11:02:55;;;;;;;;;;;;;;;21.35;33.44;98685.28;4865927;29;856;-82
2022/10/12 11:05:22;;;;;;;;;;;;;;;21.19;33.47;98685.88;4849920;29;984;-83
2022/10/12 11:07:52;;;;;;;;;;;;;;;21.10;33.33;98677.09;4850184;29;1136;-83
2022/10/12 11:10:22;;;;;;;;;;;;;;;21.37;32.56;98679.19;4850413;29;1139;-83
2022/10/12 11:12:49;;;;;;;;;;;;;;;21.08;33.06;98673.88;4865318;29;952;-82
2022/10/12 11:15:19;;;;;;;;;;;;;;;21.02;33.11;98675.59;4866965;29;1065;-83
2022/10/12 11:17:46;;;;;;;;;;;;;;;20.85;33.54;98665.31;4883949;29;1969;-83
2022/10/12 11:23:50;;;;;;;;;;;;;;;20.81;33.50;98671.00;4923686;29;630;-82
2022/10/12 11:26:40;;;;;;;;;;;;;;;20.99;32.93;98667.97;4886747;29;948;-82
2022/10/12 11:29:06;;;;;;;;;;;;;;;20.97;32.99;98667.56;4849941;29;1087;-83
2022/10/12 11:35:06;;;;;;;;;;;;;;;20.93;32.99;98666.81;4864819;29;808;-82
2022/10/12 11:37:35;;;;;;;;;;;;;;;20.94;33.01;98669.25;4852314;29;1127;-82
2022/10/12 11:40:00;;;;;;;;;;;;;;;20.92;32.82;98671.66;4867721;29;1907;-83
2022/10/12 11:42:30;;;;;;;;;;;;;;;21.12;32.26;98674.63;4867655;29;904;-82
2022/10/12 11:44:55;;;;;;;;;;;;;;;21.02;32.43;98669.94;4883132;29;725;-83
2022/10/12 11:47:26;;;;;;;;;;;;;;;20.98;32.70;98672.00;4867445;29;912;-83
2022/10/12 11:49:52;;;;;;;;;;;;;;;21.33;33.26;98671.53;4867947;29;1139;-82
2022/10/12 11:52:17;;;;;;;;;;;;;;;21.21;33.65;98660.78;4852238;29;1337;-83
2022/10/12 11:58:17;;;;;;;;;;;;;;;21.18;33.24;98664.44;4882813;29;1915;-83
2022/10/12 12:00:45;;;;;;;;;;;;;;;20.92;33.82;98665.22;4882784;29;1128;-83
2022/10/12 12:03:15;;;;;;;;;;;;;;;20.98;33.29;98657.84;4883026;29;933;-82
2022/10/12 12:05:41;;;;;;;;;;;;;;;20.97;33.18;98661.91;4858098;29;1195;-83
2022/10/12 12:08:07;;;;;;;;;;;;;;;21.10;32.99;98660.13;4870440;29;899;-82
2022/10/12 12:10:36;;;;;;;;;;;;;;;20.89;33.26;98655.56;4898785;29;709;-82
2022/10/12 12:13:11;;;;;;;;;;;;;;;21.10;33.06;98654.47;4901383;29;732;-83
2022/10/12 12:16:09;;;;;;;;;;;;;;;21.02;33.11;98658.59;4900618;29;1130;-82
2022/10/12 12:18:53;;;;;;;;;;;;;;;20.88;33.34;98650.31;4902400;29;1914;-83
2022/10/12 12:21:19;;;;;;;;;;;;;;;20.91;33.08;98655.94;4903340;29;785;-83
2022/10/12 12:23:52;;;;;;;;;;;;;;;20.94;33.34;98657.13;4886562;29;1210;-82
2022/10/12 12:26:18;;;;;;;;;;;;;;;20.82;33.32;98649.97;4886560;29;1150;-82
2022/10/12 12:28:47;;;;;;;;;;;;;;;20.96;32.92;98654.66;4886916;29;1219;-83
2022/10/12 12:34:57;;;;;;;;;;;;;;;20.92;32.70;98659.56;4903308;29;619;-82
2022/10/12 12:37:25;;;;;;;;;;;;;;;20.88;32.89;98651.13;4886290;29;1146;-82
2022/10/12 12:39:51;;;;;;;;;;;;;;;20.99;32.56;98659.47;4882399;29;1907;-82
2022/10/12 12:42:20;;;;;;;;;;;;;;;20.68;33.29;98653.81;4882226;29;1110;-82
2022/10/12 12:44:46;;;;;;;;;;;;;;;20.65;33.29;98651.81;4866474;29;1205;-82
2022/10/12 12:47:11;;;;;;;;;;;;;;;20.89;34.14;98655.56;4882001;29;832;-82
2022/10/12 12:49:41;;;;;;;;;;;;;;;21.17;34.02;98660.00;4882000;29;803;-82
2022/10/12 12:52:13;;;;;;;;;;;;;;;21.24;33.86;98654.28;4882250;29;1257;-83
2022/10/12 12:54:44;;;;;;;;;;;;;;;21.02;34.27;98653.75;4881773;29;859;-83
2022/10/12 12:57:24;;;;;;;;;;;;;;;21.07;33.57;98650.44;4881987;29;777;-82
2022/10/12 12:59:56;;;;;;;;;;;;;;;20.90;33.67;98647.88;4881645;29;1903;-82
2022/10/12 13:02:41;;;;;;;;;;;;;;;20.87;33.93;98645.88;4881566;29;906;-82
2022/10/12 13:05:09;;;;;;;;;;;;;;;20.91;33.52;98653.09;4881679;29;884;-82
2022/10/12 13:07:40;;;;;;;;;;;;;;;20.96;33.34;98649.00;4881605;29;749;-82
2022/10/12 13:10:25;;;;;;;;;;;;;;;20.98;33.11;98643.72;4885656;29;877;-82
2022/10/12 13:12:53;;;;;;;;;;;;;;;20.81;33.53;98648.38;4901605;29;1234;-82
2022/10/12 13:15:21;;;;;;;;;;;;;;;20.90;33.19;98647.88;4901557;29;1110;-82
2022/10/12 13:18:00;;;;;;;;;;;;;;;21.10;32.73;98654.47;4900515;29;1973;-82
2022/10/12 13:20:26;;;;;;;;;;;;;;;21.40;32.49;98653.66;5171568;23;3517;-82
2022/10/12 13:22:52;;;;;;;;;;;;;;;21.98;32.88;98651.47;4918836;29;1719;-82
2022/10/12 13:25:38;;;;;;;;;;;;;;;21.71;33.33;98654.38;4936186;29;724;-82
2022/10/12 13:28:05;;;;;;;;;;;;;;;21.87;33.24;98655.72;5024765;23;3760;-82
2022/10/12 13:30:49;;;;;;;;;;;;;;;21.79;33.89;98670.00;4904625;29;1118;-82
2022/10/12 13:33:17;;;;;;;;;;;;;;;21.47;34.01;98661.22;4919993;29;1145;-82
2022/10/12 13:35:47;;;;;;;;;;;;;;;21.22;33.78;98658.75;4919915;29;1031;-82
2022/10/12 13:38:12;;;;;;;;;;;;;;;21.06;33.51;98670.69;4920047;29;1986;-82
2022/10/12 13:40:38;;;;;;;;;;;;;;;20.79;33.95;98657.31;4899922;29;896;-82